Kabwe, Zambia
Current Conditions -  °F | °C
As of 9:00 AM on Friday 24 Oct 2014 (Local Time) from FLKK Reporting Station
Clear Clear  
Wind Chill: 81°   Ceiling: Unl
Heat Index: 81°   Visibility: 6mi
Dew Point: 54°   Wind: 7mph
Humidity: 39%   Direction: 60°ENE
Pressure: 30.12"   Gusts: NA
Location:  14.44°S, 28.45°E
Report Text: FLKK 240700Z 06006KT CAVOK 27/12 Q1020
Loading
Personal Weather Stations






























Interactive Weather Map
Tropical Storm Tracking
New forecast layout! Learn more

10-Day Weather Forecast

Advertisements
Track Severe Weather on mobile